Time;durP1;ratioP1;P1;durP2;ratioP2;P2;SDS_P1;SDS_P2;PMS_P1;PMS_P2;Temp;Humidity;BMP_temperature;BMP_pressure;BME280_temperature;BME280_humidity;BME280_pressure;Samples;Min_cycle;Max_cycle;Signal;HPM_P1;HPM_P2
2023/04/03 00:00:40;;;;;;;2.90;2.60;;;;;;;5.48;100.00;99691.88;6203414;22;20171;-86
2023/04/03 00:03:08;;;;;;;2.83;2.63;;;;;;;5.54;100.00;99691.13;6203421;22;20250;-81
2023/04/03 00:05:35;;;;;;;3.23;2.57;;;;;;;5.55;100.00;99699.94;6227904;22;20190;-82
2023/04/03 00:08:04;;;;;;;2.97;2.57;;;;;;;5.54;100.00;99696.44;6203073;22;20242;-81
2023/04/03 00:10:31;;;;;;;3.50;2.80;;;;;;;5.39;100.00;99692.97;6203589;22;20168;-84
2023/04/03 00:13:00;;;;;;;2.77;2.47;;;;;;;5.61;100.00;99691.19;6229801;22;20610;-85
2023/04/03 00:15:27;;;;;;;4.17;2.90;;;;;;;5.53;100.00;99692.13;6202704;22;20179;-84
2023/04/03 00:17:53;;;;;;;2.97;2.70;;;;;;;5.55;100.00;99697.28;6203616;22;20168;-83
2023/04/03 00:20:20;;;;;;;3.17;2.33;;;;;;;5.57;100.00;99697.91;6227921;22;20194;-83
2023/04/03 00:22:47;;;;;;;2.77;2.57;;;;;;;5.51;100.00;99693.31;6203062;22;20661;-84
2023/04/03 00:25:14;;;;;;;3.20;2.70;;;;;;;5.54;100.00;99700.94;6202851;22;20188;-82
2023/04/03 00:27:41;;;;;;;2.80;2.60;;;;;;;5.48;100.00;99696.34;6203081;22;20575;-83
2023/04/03 00:30:11;;;;;;;3.70;2.63;;;;;;;5.43;100.00;99685.44;6203393;22;20172;-84
2023/04/03 00:32:38;;;;;;;3.23;2.50;;;;;;;5.81;100.00;99697.59;6254189;22;20203;-82
2023/04/03 00:35:05;;;;;;;3.20;2.60;;;;;;;5.35;100.00;99683.72;6259181;22;20167;-84
2023/04/03 00:37:32;;;;;;;2.73;2.43;;;;;;;5.51;100.00;99694.16;6233010;22;20164;-82
2023/04/03 00:40:00;;;;;;;3.40;2.40;;;;;;;5.46;100.00;99688.56;6258009;22;20172;-82
2023/04/03 00:42:27;;;;;;;3.80;2.43;;;;;;;5.43;100.00;99693.44;6232942;22;20246;-81
2023/04/03 00:44:56;;;;;;;3.33;2.40;;;;;;;5.43;100.00;99693.44;6232993;22;20211;-81
2023/04/03 00:47:24;;;;;;;2.67;2.27;;;;;;;5.46;100.00;99709.81;6258041;22;20167;-83
2023/04/03 00:49:52;;;;;;;2.50;2.30;;;;;;;5.52;100.00;99700.28;6232884;22;20191;-83
2023/04/03 00:52:22;;;;;;;2.90;2.60;;;;;;;5.40;100.00;99702.59;6232806;22;20229;-84
2023/04/03 00:54:54;;;;;;;2.93;2.50;;;;;;;5.37;100.00;99708.28;6234149;22;20170;-83
2023/04/03 00:57:22;;;;;;;3.30;2.47;;;;;;;5.38;100.00;99707.25;6233452;22;20163;-82
2023/04/03 00:59:52;;;;;;;2.70;2.50;;;;;;;5.38;100.00;99701.94;6233150;22;20163;-84
2023/04/03 01:02:18;;;;;;;3.43;2.60;;;;;;;5.43;100.00;99701.41;6233334;22;20553;-83
2023/04/03 01:04:47;;;;;;;2.70;2.50;;;;;;;5.41;100.00;99704.25;6232540;22;20702;-83
2023/04/03 01:07:21;;;;;;;2.60;2.40;;;;;;;5.50;100.00;99703.16;6259241;22;20168;-82
2023/04/03 01:09:51;;;;;;;2.67;2.30;;;;;;;5.46;100.00;99693.88;6232246;22;20245;-83
2023/04/03 01:12:20;;;;;;;3.63;2.57;;;;;;;5.32;100.00;99697.38;6232998;22;20195;-83
2023/04/03 01:14:56;;;;;;;2.90;2.60;;;;;;;5.31;100.00;99701.88;6283239;22;20168;-82
2023/04/03 01:17:27;;;;;;;2.77;2.37;;;;;;;5.38;100.00;99698.47;6232919;22;20518;-84
2023/04/03 01:20:36;;;;;;;2.80;2.33;;;;;;;5.35;100.00;99699.66;6257742;22;20167;-83
2023/04/03 01:23:10;;;;;;;2.77;2.40;;;;;;;5.22;100.00;99702.97;6234226;22;20633;-86
2023/04/03 01:25:51;;;;;;;3.00;2.43;;;;;;;5.29;100.00;99700.41;6283109;22;20211;-82
2023/04/03 01:28:26;;;;;;;3.13;2.63;;;;;;;5.15;100.00;99704.72;6257769;22;20167;-86
2023/04/03 01:31:01;;;;;;;3.60;2.80;;;;;;;5.29;100.00;99703.88;6257892;22;20499;-82
2023/04/03 01:33:30;;;;;;;2.60;2.40;;;;;;;5.11;100.00;99699.94;6284060;22;20188;-81
2023/04/03 01:35:57;;;;;;;2.90;2.70;;;;;;;5.17;100.00;99708.03;6283198;22;20190;-82
2023/04/03 01:38:25;;;;;;;2.80;2.40;;;;;;;5.27;100.00;99716.50;6233016;22;20225;-82
2023/04/03 01:40:52;;;;;;;3.33;2.43;;;;;;;5.38;100.00;99709.09;6257925;22;20178;-83
2023/04/03 01:43:19;;;;;;;4.00;2.63;;;;;;;5.31;100.00;99712.50;6232465;22;20630;-81
2023/04/03 01:45:46;;;;;;;4.30;2.80;;;;;;;5.33;100.00;99712.31;6232530;22;20290;-82
2023/04/03 01:48:13;;;;;;;3.87;2.80;;;;;;;5.24;100.00;99714.22;6232650;22;20167;-83
2023/04/03 01:50:40;;;;;;;3.17;2.43;;;;;;;5.34;100.00;99711.31;6257497;22;20171;-83
2023/04/03 01:53:07;;;;;;;2.73;2.53;;;;;;;5.26;100.00;99706.09;6257844;22;20168;-84
2023/04/03 01:55:34;;;;;;;2.80;2.47;;;;;;;5.32;100.00;99708.00;6232429;22;20167;-82
2023/04/03 01:58:02;;;;;;;2.80;2.60;;;;;;;5.26;100.00;99711.41;6232506;22;20167;-81
2023/04/03 02:00:31;;;;;;;3.67;2.70;;;;;;;5.28;100.00;99720.81;6232623;22;20172;-81
2023/04/03 02:02:57;;;;;;;2.87;2.53;;;;;;;5.22;100.00;99710.13;6232534;22;20168;-83
2023/04/03 02:05:25;;;;;;;3.37;2.53;;;;;;;5.18;100.00;99708.84;6232523;22;20188;-83
2023/04/03 02:07:52;;;;;;;4.03;2.70;;;;;;;5.18;100.00;99706.97;6232634;22;20167;-83
2023/04/03 02:10:19;;;;;;;2.70;2.50;;;;;;;5.24;100.00;99710.75;6232415;22;20191;-83
2023/04/03 02:12:46;;;;;;;2.73;2.30;;;;;;;5.26;100.00;99712.22;6258043;22;20175;-84
2023/04/03 02:15:13;;;;;;;2.77;2.50;;;;;;;5.27;100.00;99707.75;6232101;22;20178;-82
2023/04/03 02:17:40;;;;;;;2.77;2.47;;;;;;;5.31;100.00;99717.00;6231770;22;20178;-83
2023/04/03 02:20:07;;;;;;;2.67;2.47;;;;;;;5.23;100.00;99715.22;6257645;22;20168;-82
2023/04/03 02:22:35;;;;;;;4.13;2.53;;;;;;;5.15;100.00;99718.00;6257306;22;20171;-82
2023/04/03 02:25:02;;;;;;;3.10;2.80;;;;;;;5.10;100.00;99712.41;6231917;22;20191;-81
2023/04/03 02:27:28;;;;;;;3.10;2.80;;;;;;;5.13;100.00;99725.31;6231848;22;20168;-83
2023/04/03 02:29:55;;;;;;;2.87;2.57;;;;;;;5.10;100.00;99717.72;6231734;22;20167;-84
2023/04/03 02:32:22;;;;;;;3.63;2.80;;;;;;;5.17;100.00;99723.13;6257530;22;20199;-83
2023/04/03 02:34:49;;;;;;;3.30;2.70;;;;;;;5.28;100.00;99720.81;6257664;22;20640;-84
2023/04/03 02:37:16;;;;;;;3.23;2.90;;;;;;;5.14;100.00;99726.94;6258173;22;20480;-83
2023/04/03 02:39:45;;;;;;;4.10;2.80;;;;;;;5.22;100.00;99726.88;6257152;22;20179;-81
2023/04/03 02:42:12;;;;;;;3.93;2.70;;;;;;;5.27;100.00;99718.38;6231847;22;20193;-82
2023/04/03 02:44:39;;;;;;;2.80;2.60;;;;;;;5.22;100.00;99718.91;6206777;22;20193;-83
2023/04/03 02:47:08;;;;;;;3.53;2.40;;;;;;;5.27;100.00;99716.50;6232261;22;20194;-81
2023/04/03 02:49:35;;;;;;;3.80;2.90;;;;;;;5.29;100.00;99724.31;6256635;22;20614;-81
2023/04/03 02:52:01;;;;;;;3.47;2.60;;;;;;;5.20;100.00;99726.25;6231343;22;20213;-83
2023/04/03 02:54:30;;;;;;;3.20;2.90;;;;;;;5.25;100.00;99726.50;6231859;22;20174;-80
2023/04/03 02:57:01;;;;;;;3.47;2.73;;;;;;;5.11;100.00;99729.97;6235026;22;20164;-82
2023/04/03 02:59:28;;;;;;;3.10;2.80;;;;;;;5.11;100.00;99727.31;6256665;22;20217;-82
2023/04/03 03:01:55;;;;;;;2.90;2.70;;;;;;;5.25;100.00;99733.66;6257257;22;20175;-84
2023/04/03 03:04:22;;;;;;;3.67;2.90;;;;;;;5.26;100.00;99727.34;6256900;22;20199;-83
2023/04/03 03:06:50;;;;;;;3.53;2.93;;;;;;;5.22;100.00;99731.38;6231531;22;20195;-80
2023/04/03 03:09:17;;;;;;;4.17;3.40;;;;;;;5.06;100.00;99735.00;6231861;22;20167;-84
2023/04/03 03:11:44;;;;;;;3.67;3.10;;;;;;;5.14;100.00;99734.09;6256819;22;20171;-81
2023/04/03 03:14:12;;;;;;;3.47;2.97;;;;;;;5.12;100.00;99736.94;6257264;22;20166;-83
2023/04/03 03:16:39;;;;;;;3.73;2.70;;;;;;;5.19;100.00;99739.69;6231300;22;20163;-81
2023/04/03 03:19:06;;;;;;;4.40;3.50;;;;;;;5.09;100.00;99741.78;6231231;22;20250;-81
2023/04/03 03:21:33;;;;;;;3.47;2.87;;;;;;;5.04;100.00;99744.19;6231481;22;20164;-81
2023/04/03 03:24:01;;;;;;;3.87;3.20;;;;;;;5.03;100.00;99745.19;6231485;22;20187;-83
2023/04/03 03:26:28;;;;;;;3.40;2.90;;;;;;;5.08;100.00;99748.94;6231748;22;20191;-83
2023/04/03 03:28:57;;;;;;;2.97;2.73;;;;;;;5.13;100.00;99743.09;6256917;22;20160;-81
2023/04/03 03:31:25;;;;;;;5.67;3.80;;;;;;;5.13;100.00;99743.09;6231596;22;20652;-81
2023/04/03 03:33:52;;;;;;;5.40;3.40;;;;;;;5.12;100.00;99738.78;6230904;22;20163;-82
2023/04/03 03:36:18;;;;;;;3.10;2.80;;;;;;;5.16;100.00;99746.19;6231038;22;20163;-84
2023/04/03 03:38:45;;;;;;;3.70;2.83;;;;;;;5.07;100.00;99738.50;6256493;22;20201;-82
2023/04/03 03:41:12;;;;;;;3.00;2.70;;;;;;;5.08;100.00;99743.63;6231423;22;20167;-83
2023/04/03 03:43:41;;;;;;;2.93;2.60;;;;;;;4.99;100.00;99746.56;6232505;22;20168;-82
2023/04/03 03:46:08;;;;;;;3.43;2.90;;;;;;;5.07;100.00;99752.59;6231366;22;20194;-83
2023/04/03 03:48:35;;;;;;;2.83;2.53;;;;;;;5.00;100.00;99751.66;6231455;22;20262;-83
2023/04/03 03:51:02;;;;;;;3.10;2.80;;;;;;;4.93;100.00;99750.75;6256260;22;20172;-83
2023/04/03 03:53:33;;;;;;;3.17;2.40;;;;;;;4.85;100.00;99740.22;6256883;22;20164;-82
2023/04/03 03:56:05;;;;;;;2.70;2.50;;;;;;;5.09;100.00;99739.13;6257033;22;20164;-85
2023/04/03 03:58:34;;;;;;;4.47;2.50;;;;;;;5.04;100.00;99747.63;6232078;22;20167;-82
2023/04/03 04:01:05;;;;;;;2.57;2.37;;;;;;;5.04;100.00;99742.31;6231633;22;20168;-84
2023/04/03 04:03:38;;;;;;;2.37;2.17;;;;;;;5.02;100.00;99747.00;6233450;22;20163;-82
2023/04/03 04:06:06;;;;;;;2.33;2.10;;;;;;;5.01;100.00;99752.50;6232105;22;20194;-83
2023/04/03 04:08:34;;;;;;;2.47;2.10;;;;;;;5.07;100.00;99741.97;6256313;22;20168;-84
2023/04/03 04:11:01;;;;;;;3.63;2.20;;;;;;;4.99;100.00;99750.03;6231257;22;20163;-81
2023/04/03 04:13:28;;;;;;;2.57;2.30;;;;;;;5.01;100.00;99750.66;6231257;22;20177;-81
2023/04/03 04:15:55;;;;;;;2.90;2.60;;;;;;;5.08;100.00;99746.28;6230904;22;20239;-83
2023/04/03 04:18:24;;;;;;;3.17;2.60;;;;;;;5.02;100.00;99744.34;6232075;22;20175;-81
2023/04/03 04:20:51;;;;;;;2.57;2.33;;;;;;;5.06;100.00;99758.09;6256374;22;20168;-83
2023/04/03 04:23:19;;;;;;;2.50;2.30;;;;;;;5.00;100.00;99749.00;6231205;22;20164;-81
2023/04/03 04:25:48;;;;;;;2.43;2.23;;;;;;;4.95;100.00;99759.34;6231690;22;20191;-80
2023/04/03 04:28:15;;;;;;;2.80;2.50;;;;;;;5.17;100.00;99747.88;6230884;22;20242;-83
2023/04/03 04:30:43;;;;;;;3.80;2.40;;;;;;;5.14;100.00;99753.50;6281624;22;20167;-82
2023/04/03 04:33:11;;;;;;;2.93;2.43;;;;;;;5.20;100.00;99763.41;6232037;22;20170;-83
2023/04/03 04:35:41;;;;;;;3.53;2.43;;;;;;;5.08;100.00;99748.94;6231297;22;20251;-87
2023/04/03 04:38:10;;;;;;;3.37;2.30;;;;;;;5.06;100.00;99764.22;6232027;22;20160;-82
2023/04/03 04:40:37;;;;;;;2.97;2.67;;;;;;;5.05;100.00;99767.88;6232335;22;20164;-86
2023/04/03 04:43:05;;;;;;;2.80;2.60;;;;;;;4.92;100.00;99765.03;6231327;22;20171;-81
2023/04/03 04:45:32;;;;;;;3.90;2.83;;;;;;;5.02;100.00;99762.13;6233293;22;20240;-84
2023/04/03 04:47:59;;;;;;;2.80;2.57;;;;;;;5.10;100.00;99764.69;6258359;22;20248;-83
2023/04/03 04:50:26;;;;;;;2.93;2.50;;;;;;;5.05;100.00;99773.19;6232242;22;20163;-85
2023/04/03 04:52:56;;;;;;;3.23;2.70;;;;;;;5.01;100.00;99773.75;6258319;22;20671;-84
2023/04/03 04:55:23;;;;;;;2.90;2.70;;;;;;;4.84;100.00;99773.91;6283703;22;20223;-84
2023/04/03 04:57:50;;;;;;;4.57;2.93;;;;;;;4.98;100.00;99776.75;6283670;22;20172;-84
2023/04/03 05:00:20;;;;;;;3.70;2.93;;;;;;;5.00;100.00;99783.53;6233711;22;20164;-83
2023/04/03 05:02:47;;;;;;;3.00;2.80;;;;;;;4.96;100.00;99789.38;6258325;22;20255;-82
2023/04/03 05:05:14;;;;;;;3.00;2.60;;;;;;;5.05;100.00;99791.78;6207831;22;20199;-83
2023/04/03 05:07:41;;;;;;;2.63;2.43;;;;;;;4.94;100.00;99780.78;6232878;22;20617;-83
2023/04/03 05:10:11;;;;;;;3.57;2.73;;;;;;;4.95;100.00;99788.53;6258546;22;20167;-85
2023/04/03 05:12:40;;;;;;;2.90;2.63;;;;;;;5.02;100.00;99784.19;6258758;22;20203;-87
2023/04/03 05:15:08;;;;;;;3.03;2.70;;;;;;;5.05;100.00;99788.28;6232762;22;20172;-86
2023/04/03 05:17:34;;;;;;;3.00;2.60;;;;;;;5.07;100.00;99783.66;6257862;22;20179;-86
2023/04/03 05:20:04;;;;;;;3.27;2.70;;;;;;;5.05;100.00;99786.47;6233223;22;20175;-85
2023/04/03 05:22:33;;;;;;;3.70;2.20;;;;;;;5.00;100.00;99790.66;6233270;22;20171;-83
2023/04/03 05:25:05;;;;;;;3.10;2.60;;;;;;;4.92;100.00;99785.44;6234422;22;20593;-84
2023/04/03 05:27:32;;;;;;;3.47;2.43;;;;;;;4.83;100.00;99790.00;6258074;22;20701;-83
2023/04/03 05:30:00;;;;;;;3.00;2.50;;;;;;;4.93;100.00;99800.38;6258296;22;20168;-86
2023/04/03 05:32:28;;;;;;;3.07;2.77;;;;;;;4.94;100.00;99794.88;6233570;22;20200;-82
2023/04/03 05:35:11;;;;;;;2.77;2.30;;;;;;;4.96;100.00;99803.47;6238404;22;20160;-82
2023/04/03 05:37:40;;;;;;;2.60;2.40;;;;;;;4.98;100.00;99801.50;6257814;22;20167;-82
2023/04/03 05:40:08;;;;;;;2.77;2.47;;;;;;;5.03;100.00;99807.09;6258847;22;20168;-83
2023/04/03 05:42:39;;;;;;;2.57;2.30;;;;;;;4.95;100.00;99801.81;6259566;22;20167;-82
2023/04/03 05:45:06;;;;;;;5.03;2.70;;;;;;;4.97;100.00;99805.13;6233821;22;20194;-82
2023/04/03 05:47:33;;;;;;;2.50;2.30;;;;;;;4.69;100.00;99796.91;6258571;22;20191;-85
2023/04/03 05:50:00;;;;;;;2.93;2.60;;;;;;;4.73;100.00;99811.47;6232985;22;20194;-83
2023/04/03 05:52:29;;;;;;;3.10;2.60;;;;;;;4.90;100.00;99811.34;6258174;22;20171;-85
2023/04/03 05:54:58;;;;;;;3.57;2.73;;;;;;;5.07;100.00;99800.41;6232808;22;20195;-84
2023/04/03 05:57:28;;;;;;;2.97;2.67;;;;;;;4.93;100.00;99803.84;6233211;22;20163;-84
2023/04/03 05:59:55;;;;;;;2.90;2.60;;;;;;;4.88;100.00;99814.19;6232131;22;20172;-84
2023/04/03 06:02:24;;;;;;;3.30;2.80;;;;;;;5.05;100.00;99810.38;6232525;22;20171;-82
2023/04/03 06:04:53;;;;;;;2.97;2.67;;;;;;;5.05;100.00;99812.19;6258167;22;20170;-82
2023/04/03 06:07:22;;;;;;;3.43;2.57;;;;;;;4.90;100.00;99803.41;6232523;22;20230;-82
2023/04/03 06:09:51;;;;;;;4.77;2.77;;;;;;;5.13;100.00;99807.63;6258072;22;20223;-82
2023/04/03 06:12:21;;;;;;;7.30;4.20;;;;;;;5.27;100.00;99814.00;6234214;22;20168;-84
2023/04/03 06:14:49;;;;;;;3.60;2.90;;;;;;;5.43;100.00;99805.03;6257843;22;20201;-82
2023/04/03 06:17:17;;;;;;;3.47;2.47;;;;;;;5.35;100.00;99807.78;6232378;22;20172;-81
2023/04/03 06:19:45;;;;;;;3.23;2.30;;;;;;;5.55;100.00;99816.88;6232774;22;20202;-82
2023/04/03 06:22:12;;;;;;;3.23;2.40;;;;;;;5.43;100.00;99819.13;6257740;22;20613;-83
2023/04/03 06:24:40;;;;;;;2.57;2.37;;;;;;;5.37;100.00;99822.50;6258163;22;20167;-82
2023/04/03 06:27:07;;;;;;;2.90;2.40;;;;;;;5.59;100.00;99823.47;6231948;22;20275;-82
2023/04/03 06:29:33;;;;;;;3.13;2.60;;;;;;;5.58;100.00;99819.16;6232192;22;20168;-84
2023/04/03 06:32:02;;;;;;;4.37;2.47;;;;;;;5.67;100.00;99826.03;6232317;22;20286;-85
2023/04/03 06:34:29;;;;;;;2.77;2.40;;;;;;;5.64;100.00;99826.41;6230957;22;20609;-84
2023/04/03 06:36:56;;;;;;;3.10;2.80;;;;;;;5.55;100.00;99830.97;6232170;22;20163;-83
2023/04/03 06:39:23;;;;;;;4.37;2.80;;;;;;;5.78;100.00;99829.03;6257074;22;20167;-83
2023/04/03 06:41:50;;;;;;;4.07;2.73;;;;;;;5.76;100.00;99824.94;6256994;22;20250;-83
2023/04/03 06:44:25;;;;;;;3.37;2.57;;;;;;;5.73;100.00;99835.94;6235683;22;20269;-85
2023/04/03 06:46:54;;;;;;;2.67;2.40;;;;;;;5.51;100.00;99828.84;6256129;22;20194;-80
2023/04/03 06:49:21;;;;;;;3.30;2.60;;;;;;;5.79;100.00;99824.56;6231413;22;20171;-80
2023/04/03 06:51:48;;;;;;;3.13;2.77;;;;;;;6.09;100.00;99828.06;6231044;22;20160;-80
2023/04/03 06:54:14;;;;;;;3.07;2.63;;;;;;;6.20;100.00;99824.94;6256204;22;20197;-81
2023/04/03 06:56:41;;;;;;;4.47;2.60;;;;;;;5.85;98.26;99833.63;6230940;22;20250;-82
2023/04/03 06:59:09;;;;;;;3.27;2.50;;;;;;;5.77;99.30;99837.22;6230449;22;20197;-80
2023/04/03 07:01:36;;;;;;;3.17;2.60;;;;;;;5.96;98.89;99843.84;6231506;22;20168;-80
2023/04/03 07:04:03;;;;;;;3.77;2.50;;;;;;;6.11;97.27;99834.81;6255318;22;20221;-81
2023/04/03 07:06:30;;;;;;;3.23;2.60;;;;;;;6.35;95.86;99851.47;6255842;22;20199;-80
2023/04/03 07:08:57;;;;;;;3.13;2.40;;;;;;;6.05;95.48;99840.06;6256248;22;20159;-79
2023/04/03 07:11:24;;;;;;;3.47;2.67;;;;;;;6.15;95.75;99849.44;6230581;22;20505;-81
2023/04/03 07:13:51;;;;;;;2.90;2.60;;;;;;;5.80;97.01;99851.97;6255993;22;20670;-80
2023/04/03 07:16:18;;;;;;;3.03;2.37;;;;;;;5.85;96.66;99871.69;6255229;22;20164;-81
2023/04/03 07:18:45;;;;;;;3.63;2.50;;;;;;;5.92;96.64;99851.38;6255495;22;20621;-80
2023/04/03 07:21:12;;;;;;;3.90;2.53;;;;;;;5.89;96.26;99866.84;6230476;22;20209;-80
2023/04/03 07:23:39;;;;;;;3.77;2.70;;;;;;;5.61;97.04;99870.09;6255665;22;20250;-80
2023/04/03 07:26:06;;;;;;;3.50;2.50;;;;;;;5.93;96.65;99870.78;6230621;22;20183;-80
2023/04/03 07:28:33;;;;;;;4.00;2.37;;;;;;;5.90;93.85;99863.19;6230636;22;20194;-80
2023/04/03 07:31:03;;;;;;;3.57;2.30;;;;;;;6.21;92.58;99874.44;6225105;22;20204;-80
2023/04/03 07:33:30;;;;;;;2.83;2.50;;;;;;;6.32;91.36;99879.28;6231546;22;20183;-80
2023/04/03 07:35:58;;;;;;;2.53;2.30;;;;;;;6.30;91.46;99881.31;6255663;22;20195;-80
2023/04/03 07:38:25;;;;;;;3.13;2.40;;;;;;;6.23;90.26;99880.41;6230319;22;20626;-81
2023/04/03 07:40:52;;;;;;;4.37;2.63;;;;;;;6.41;90.03;99878.19;6255764;22;20675;-79
2023/04/03 07:43:20;;;;;;;4.40;2.60;;;;;;;5.68;90.61;99883.50;6231389;22;20190;-84
2023/04/03 07:45:52;;;;;;;3.40;2.77;;;;;;;5.81;91.36;99883.69;6257097;22;20195;-84
2023/04/03 07:48:24;;;;;;;3.63;2.37;;;;;;;5.97;91.06;99883.53;6257532;22;20191;-88
2023/04/03 07:50:51;;;;;;;2.57;2.33;;;;;;;6.13;90.47;99888.69;6257697;22;20171;-88
2023/04/03 07:53:18;;;;;;;3.67;2.63;;;;;;;6.20;88.80;99886.91;6232508;22;20167;-87
2023/04/03 07:55:48;;;;;;;3.23;2.47;;;;;;;5.86;89.45;99896.44;6232249;22;20221;-88
2023/04/03 07:58:17;;;;;;;3.83;2.57;;;;;;;6.55;89.02;99890.63;6232260;22;20171;-87
2023/04/03 08:00:45;;;;;;;3.30;2.33;;;;;;;6.81;87.59;99897.28;6257112;22;20171;-88
2023/04/03 08:03:13;;;;;;;3.83;2.40;;;;;;;6.54;85.12;99901.47;6282723;22;20617;-88
2023/04/03 08:05:41;;;;;;;3.13;2.40;;;;;;;6.55;85.95;99889.81;6257123;22;20171;-87
2023/04/03 08:08:13;;;;;;;2.70;2.47;;;;;;;6.70;85.62;99898.59;6258336;22;20175;-86
2023/04/03 08:10:43;;;;;;;3.83;2.50;;;;;;;6.74;85.18;99894.53;6257960;22;20250;-86
2023/04/03 08:13:10;;;;;;;3.57;2.60;;;;;;;7.03;84.64;99905.09;6231941;22;20163;-86
2023/04/03 08:15:37;;;;;;;3.73;2.57;;;;;;;7.08;83.54;99900.00;6257138;22;20622;-87
2023/04/03 08:18:04;;;;;;;3.57;2.43;;;;;;;7.03;82.96;99898.94;6232111;22;20168;-87
2023/04/03 08:20:31;;;;;;;3.13;2.80;;;;;;;6.85;84.21;99902.03;6209287;22;20618;-90
2023/04/03 08:22:58;;;;;;;2.70;2.27;;;;;;;7.44;81.69;99894.59;6234136;22;20172;-88
2023/04/03 08:25:29;;;;;;;3.00;2.17;;;;;;;7.27;78.60;99893.22;6235028;22;20172;-86
2023/04/03 08:28:02;;;;;;;2.60;2.40;;;;;;;6.79;79.80;99896.63;6235434;22;20190;-87
2023/04/03 08:30:29;;;;;;;3.33;2.30;;;;;;;6.57;78.81;99895.78;6259316;22;20180;-86
2023/04/03 08:32:56;;;;;;;3.63;2.43;;;;;;;6.41;81.70;99895.97;6234137;22;20740;-87
2023/04/03 08:35:23;;;;;;;2.70;2.50;;;;;;;6.91;80.45;99887.94;6233721;22;20629;-86
2023/04/03 08:37:50;;;;;;;3.57;2.40;;;;;;;7.23;77.85;99896.47;6278985;22;20222;-86
2023/04/03 08:40:17;;;;;;;3.87;2.33;;;;;;;7.08;76.71;99894.69;6228853;22;20168;-87
2023/04/03 08:43:03;;;;;;;3.53;2.30;;;;;;;6.65;76.13;99877.03;6230684;22;20160;-87
2023/04/03 08:45:50;;;;;;;2.40;2.20;;;;;;;6.31;77.55;99887.47;6254557;22;20184;-86
2023/04/03 08:48:31;;;;;;;4.03;2.87;;;;;;;6.74;76.15;99894.53;6260693;22;20236;-87
2023/04/03 08:51:01;;;;;;;2.87;2.57;;;;;;;6.16;77.57;99884.81;6256972;22;20167;-87
2023/04/03 08:53:32;;;;;;;3.47;2.50;;;;;;;6.75;77.16;99895.34;6234247;22;20565;-89
2023/04/03 08:56:08;;;;;;;4.83;2.77;;;;;;;7.01;74.77;99891.13;6234574;22;20178;-88
2023/04/03 08:58:44;;;;;;;2.90;2.50;;;;;;;7.07;74.73;99882.38;6228523;22;20674;-88
2023/04/03 09:01:24;;;;;;;4.77;3.40;;;;;;;7.01;74.77;99879.63;6228518;22;20164;-89
2023/04/03 09:03:51;;;;;;;3.60;2.50;;;;;;;6.64;75.78;99888.69;6231394;22;20164;-85
2023/04/03 09:06:29;;;;;;;4.93;2.97;;;;;;;6.44;75.19;99896.44;6253691;22;20169;-86
2023/04/03 09:09:08;;;;;;;2.90;2.50;;;;;;;6.69;75.89;99885.44;6255931;22;20163;-88
2023/04/03 09:11:53;;;;;;;2.57;2.37;;;;;;;6.83;73.40;99889.91;6284331;22;20168;-84
2023/04/03 09:14:34;;;;;;;4.03;2.60;;;;;;;7.08;71.86;99886.69;6228230;22;20161;-87
2023/04/03 09:17:14;;;;;;;2.87;2.57;;;;;;;7.69;72.54;99884.31;6233043;22;20156;-88
2023/04/03 09:19:58;;;;;;;3.80;2.43;;;;;;;7.52;71.20;99888.28;6285429;22;20155;-88
2023/04/03 09:22:28;;;;;;;4.10;2.50;;;;;;;7.52;70.00;99891.78;6259044;22;20171;-85
2023/04/03 09:25:27;;;;;;;2.70;2.33;;;;;;;7.62;68.33;99895.94;6235467;22;20170;-86
2023/04/03 09:27:57;;;;;;;2.57;2.00;;;;;;;7.27;66.86;99885.22;6234639;22;20184;-87
2023/04/03 09:30:25;;;;;;;3.30;2.00;;;;;;;7.43;65.68;99900.09;6232800;22;20170;-86
2023/04/03 09:32:56;;;;;;;2.63;2.07;;;;;;;7.26;65.31;99899.56;6235443;22;20642;-85
2023/04/03 09:35:30;;;;;;;2.27;1.63;;;;;;;7.21;62.18;99901.97;6233392;22;20241;-86
2023/04/03 09:38:12;;;;;;;2.87;1.80;;;;;;;7.47;60.41;99888.03;6212060;22;20603;-87
2023/04/03 09:40:51;;;;;;;2.43;2.23;;;;;;;7.38;63.43;99900.69;6273458;22;20598;-86
2023/04/03 09:43:34;;;;;;;2.53;2.30;;;;;;;7.37;65.21;99887.56;6258172;22;20202;-88
2023/04/03 09:46:25;;;;;;;5.17;3.50;;;;;;;6.97;64.84;99897.84;6233297;22;20254;-85
2023/04/03 09:48:56;;;;;;;8.60;6.93;;;;;;;7.76;65.64;99895.84;6230524;22;20157;-86
2023/04/03 09:51:33;;;;;;;2.40;2.20;;;;;;;7.98;62.38;99899.25;6260327;22;20163;-88
2023/04/03 09:54:00;;;;;;;3.70;2.57;;;;;;;8.20;62.05;99887.50;6232623;22;20203;-86
2023/04/03 09:56:29;;;;;;;3.50;2.60;;;;;;;7.95;62.70;99889.00;6258599;22;20172;-88
2023/04/03 09:59:02;;;;;;;2.33;2.10;;;;;;;7.66;62.93;99890.03;6234982;22;20175;-90
2023/04/03 10:01:30;;;;;;;3.10;2.60;;;;;;;7.22;63.81;99897.47;6257912;22;20246;-86
2023/04/03 10:04:18;;;;;;;2.67;2.37;;;;;;;7.09;65.42;99900.84;6283928;22;20167;-86
2023/04/03 10:06:47;;;;;;;2.77;1.87;;;;;;;7.47;61.92;99896.84;6229902;22;20261;-88
2023/04/03 10:09:22;;;;;;;3.13;1.50;;;;;;;7.60;58.97;99893.47;6233294;22;20167;-87
2023/04/03 10:12:08;;;;;;;3.50;2.13;;;;;;;7.52;59.19;99897.09;6233055;22;20183;-87
2023/04/03 10:14:38;;;;;;;5.33;1.90;;;;;;;7.48;59.99;99900.34;6233337;22;20653;-86
2023/04/03 10:17:14;;;;;;;2.00;1.80;;;;;;;7.76;58.59;99908.34;6232983;22;20490;-87
2023/04/03 10:20:09;;;;;;;3.07;2.43;;;;;;;7.75;62.95;99901.34;6253847;22;20174;-88
2023/04/03 10:23:02;;;;;;;5.10;2.50;;;;;;;8.06;64.67;99914.31;6258662;22;20214;-86
2023/04/03 10:25:40;;;;;;;2.73;2.30;;;;;;;6.25;65.04;99897.03;6233210;22;20156;-87
2023/04/03 10:28:32;;;;;;;2.77;2.23;;;;;;;6.27;64.49;99896.81;6257724;22;20191;-85
2023/04/03 10:31:28;;;;;;;2.97;1.90;;;;;;;6.53;64.68;99916.59;6232704;22;20662;-88
2023/04/03 10:34:06;;;;;;;3.00;1.97;;;;;;;6.80;62.42;99906.28;6257833;22;20172;-89
2023/04/03 10:36:54;;;;;;;2.10;1.90;;;;;;;6.74;62.36;99907.84;6229220;22;20187;-88
2023/04/03 10:40:26;;;;;;;2.33;2.13;;;;;;;6.91;62.66;99897.75;6252872;22;20168;-89
2023/04/03 10:43:05;;;;;;;2.90;2.00;;;;;;;6.17;63.61;99916.56;6135138;23;20622;-88
2023/04/03 10:45:53;;;;;;;3.80;2.30;;;;;;;5.96;64.48;99915.66;6271741;22;20156;-87
2023/04/03 10:49:02;;;;;;;3.77;2.10;;;;;;;5.91;64.16;99918.84;6252014;22;20188;-87
2023/04/03 10:51:41;;;;;;;2.50;2.30;;;;;;;6.26;63.65;99921.78;6129774;23;20197;-87
2023/04/03 10:54:27;;;;;;;3.00;2.20;;;;;;;6.61;63.94;99915.69;6235048;22;20582;-89
2023/04/03 10:57:02;;;;;;;4.00;2.13;;;;;;;6.60;63.80;99914.03;6254529;22;20163;-87
2023/04/03 10:59:44;;;;;;;4.27;2.27;;;;;;;6.69;63.85;99925.38;6229096;22;20648;-87
2023/04/03 11:02:27;;;;;;;2.17;1.97;;;;;;;7.26;61.32;99918.22;6292276;22;20198;-88
2023/04/03 11:05:16;;;;;;;3.07;2.07;;;;;;;7.76;60.59;99919.03;6282762;22;20163;-86
2023/04/03 11:07:48;;;;;;;3.60;2.40;;;;;;;7.83;59.01;99915.41;6257891;22;20186;-88
2023/04/03 11:10:24;;;;;;;2.43;2.13;;;;;;;7.58;58.56;99918.69;6233577;22;20254;-86
2023/04/03 11:13:11;;;;;;;2.73;2.30;;;;;;;7.38;58.36;99922.00;6229923;22;20167;-88
2023/04/03 11:15:39;;;;;;;4.23;2.30;;;;;;;7.43;59.85;99921.44;6228704;22;20610;-86
2023/04/03 11:18:23;;;;;;;2.57;2.13;;;;;;;7.63;59.62;99916.25;6227307;22;20243;-88
2023/04/03 11:21:08;;;;;;;2.90;2.43;;;;;;;7.63;57.62;99924.25;6227398;22;20152;-88
2023/04/03 11:23:36;;;;;;;3.20;2.43;;;;;;;7.72;56.97;99923.09;6257622;22;20163;-86
2023/04/03 11:26:18;;;;;;;3.43;2.30;;;;;;;8.12;57.40;99917.00;6237722;22;20168;-88
2023/04/03 11:28:46;;;;;;;3.33;1.97;;;;;;;8.14;56.70;99922.97;6228610;22;20188;-87
2023/04/03 11:31:23;;;;;;;3.10;2.57;;;;;;;8.09;56.77;99925.41;6258041;22;20195;-87
2023/04/03 11:34:02;;;;;;;4.30;2.07;;;;;;;7.70;55.56;99914.47;6233379;22;20167;-84
2023/04/03 11:36:33;;;;;;;2.63;2.30;;;;;;;7.73;55.64;99911.41;6252801;22;20160;-88
2023/04/03 11:39:28;;;;;;;2.63;2.17;;;;;;;7.45;56.52;99911.41;6282739;22;20246;-87
2023/04/03 11:41:56;;;;;;;4.97;3.50;;;;;;;7.12;56.45;99912.94;6230577;22;20164;-87
2023/04/03 11:44:39;;;;;;;7.87;6.23;;;;;;;7.41;56.41;99920.81;6239443;22;20156;-88
2023/04/03 11:47:11;;;;;;;6.70;5.07;;;;;;;7.71;56.07;99903.59;6215667;22;20191;-86
2023/04/03 11:49:54;;;;;;;6.97;6.17;;;;;;;7.59;55.76;99913.16;6222175;22;20191;-87
2023/04/03 11:52:42;;;;;;;2.83;2.53;;;;;;;7.56;56.24;99908.19;6283327;22;20162;-88
2023/04/03 11:55:20;;;;;;;5.23;4.20;;;;;;;7.76;54.49;99909.19;6283366;22;20166;-88